PWSweather.com
Personal Weather Stations
Station Observations
KCACOARS9
Yosemite Lakes Park, Coarsegold, CA 93614

Yosemite Lakes ParkCoarsegold, CA 93614

Lat: 37.180241, Lon: -119.765989

Elevation: 1266

Station Type: Davis Vantage Vue

http://www.weathervise.com

High Low Average
Temperature 56.3°F13.5°C 40.6°F4.8°C 48.5°F9.2°C
Dew Point 47.4°F8.6°C 39.2°F4.0°C 43.8°F6.6°C
Winds 11.0 mph 17.7 kmh Calm Calm 2.0 mph SW3.2 kmh SW
Wind Gusts 17.0 mph27.4 kmh -- 4.0 mph6.4 kmh
Humidity 97% 64% 84%
Pressure 30.08 in1018.6 mb 29.96 in1014.6 mb -
Precipitation 0.00 in0.0 mm - -
Hour Temp Dew Point Humidity Winds Wind Gusts Pressure Precip Precip Rate Daily Precip Total
12:00 AM 49.6°F9.8°C 43.4°F6.3°C 79% Calm Calm 1.0 mph1.6 kmh 30.03 in1016.9 mb 0.00 in0.0 mm 0.00 in0.0 mm 0.00 in0.0 mm
12:05 AM 49.5°F9.7°C 43.6°F6.4°C 80% Calm Calm 1.0 mph1.6 kmh 30.03 in1016.9 mb 0.00 in0.0 mm 0.00 in0.0 mm 0.00 in0.0 mm
12:10 AM 49.3°F9.6°C 43.4°F6.3°C 80% 2.0 mph SE3.2 kmh SE 2.0 mph3.2 kmh 30.03 in1016.9 mb 0.00 in0.0 mm 0.00 in0.0 mm 0.00 in0.0 mm
12:15 AM 49.7°F9.8°C 43.8°F6.6°C 80% Calm Calm 4.0 mph6.4 kmh 30.03 in1016.9 mb 0.00 in0.0 mm 0.00 in0.0 mm 0.00 in0.0 mm
12:20 AM 49.8°F9.9°C 43.9°F6.6°C 80% 1.0 mph SE1.6 kmh SE 6.0 mph9.7 kmh 30.04 in1017.3 mb 0.00 in0.0 mm 0.00 in0.0 mm 0.00 in0.0 mm
12:25 AM 49.7°F9.8°C 44.1°F6.7°C 81% 1.0 mph ESE1.6 kmh ESE 2.0 mph3.2 kmh 30.04 in1017.3 mb 0.00 in0.0 mm 0.00 in0.0 mm 0.00 in0.0 mm
12:30 AM 49.7°F9.8°C 44.1°F6.7°C 81% 1.0 mph ESE1.6 kmh ESE 3.0 mph4.8 kmh 30.04 in1017.3 mb 0.00 in0.0 mm 0.00 in0.0 mm 0.00 in0.0 mm
12:35 AM 49.9°F9.9°C 44.0°F6.7°C 80% 2.0 mph ESE3.2 kmh ESE 3.0 mph4.8 kmh 30.04 in1017.3 mb 0.00 in0.0 mm 0.00 in0.0 mm 0.00 in0.0 mm
12:40 AM 50.1°F10.1°C 44.2°F6.8°C 80% Calm Calm 3.0 mph4.8 kmh 30.04 in1017.3 mb 0.00 in0.0 mm 0.00 in0.0 mm 0.00 in0.0 mm
12:45 AM 50.1°F10.1°C 44.2°F6.8°C 80% 4.0 mph SE6.4 kmh SE 4.0 mph6.4 kmh 30.04 in1017.3 mb 0.00 in0.0 mm 0.00 in0.0 mm 0.00 in0.0 mm
12:50 AM 50.3°F10.2°C 44.1°F6.7°C 79% 3.0 mph E4.8 kmh E 5.0 mph8.0 kmh 30.04 in1017.3 mb 0.00 in0.0 mm 0.00 in0.0 mm 0.00 in0.0 mm
12:55 AM 50.3°F10.2°C 44.1°F6.7°C 79% 1.0 mph ESE1.6 kmh ESE 4.0 mph6.4 kmh 30.04 in1017.3 mb 0.00 in0.0 mm 0.00 in0.0 mm 0.00 in0.0 mm
01:00 AM 50.4°F10.2°C 44.1°F6.7°C 79% 2.0 mph E3.2 kmh E 4.0 mph6.4 kmh 30.04 in1017.3 mb 0.00 in0.0 mm 0.00 in0.0 mm 0.00 in0.0 mm
01:05 AM 50.4°F10.2°C 43.8°F6.6°C 78% 4.0 mph ESE6.4 kmh ESE 5.0 mph8.0 kmh 30.04 in1017.3 mb 0.00 in0.0 mm 0.00 in0.0 mm 0.00 in0.0 mm
01:10 AM 50.4°F10.2°C 43.8°F6.6°C 78% 3.0 mph ESE4.8 kmh ESE 6.0 mph9.7 kmh 30.04 in1017.3 mb 0.00 in0.0 mm 0.00 in0.0 mm 0.00 in0.0 mm
01:15 AM 50.5°F10.3°C 44.2°F6.8°C 79% 2.0 mph SE3.2 kmh SE 6.0 mph9.7 kmh 30.04 in1017.3 mb 0.00 in0.0 mm 0.00 in0.0 mm 0.00 in0.0 mm
01:20 AM 50.5°F10.3°C 44.2°F6.8°C 79% 1.0 mph SE1.6 kmh SE 5.0 mph8.0 kmh 30.04 in1017.3 mb 0.00 in0.0 mm 0.00 in0.0 mm 0.00 in0.0 mm
01:25 AM 50.4°F10.2°C 44.1°F6.7°C 79% 2.0 mph ESE3.2 kmh ESE 5.0 mph8.0 kmh 30.04 in1017.3 mb 0.00 in0.0 mm 0.00 in0.0 mm 0.00 in0.0 mm
01:30 AM 50.2°F10.1°C 44.3°F6.8°C 80% 3.0 mph E4.8 kmh E 6.0 mph9.7 kmh 30.04 in1017.3 mb 0.00 in0.0 mm 0.00 in0.0 mm 0.00 in0.0 mm
01:35 AM 50.0°F10.0°C 44.1°F6.7°C 80% 3.0 mph ESE4.8 kmh ESE 6.0 mph9.7 kmh 30.04 in1017.3 mb 0.00 in0.0 mm 0.00 in0.0 mm 0.00 in0.0 mm
01:40 AM 49.8°F9.9°C 44.2°F6.8°C 81% 4.0 mph ESE6.4 kmh ESE 5.0 mph8.0 kmh 30.04 in1017.3 mb 0.00 in0.0 mm 0.00 in0.0 mm 0.00 in0.0 mm
01:45 AM 49.7°F9.8°C 44.1°F6.7°C 81% 6.0 mph ESE9.7 kmh ESE 6.0 mph9.7 kmh 30.04 in1017.3 mb 0.00 in0.0 mm 0.00 in0.0 mm 0.00 in0.0 mm
01:50 AM 49.5°F9.7°C 43.9°F6.6°C 81% 4.0 mph ESE6.4 kmh ESE 6.0 mph9.7 kmh 30.04 in1017.3 mb 0.00 in0.0 mm 0.00 in0.0 mm 0.00 in0.0 mm
01:55 AM 49.3°F9.6°C 43.7°F6.5°C 81% 2.0 mph SE3.2 kmh SE 5.0 mph8.0 kmh 30.04 in1017.3 mb 0.00 in0.0 mm 0.00 in0.0 mm 0.00 in0.0 mm
02:00 AM 49.2°F9.6°C 43.6°F6.4°C 81% 2.0 mph E3.2 kmh E 5.0 mph8.0 kmh 30.04 in1017.3 mb 0.00 in0.0 mm 0.00 in0.0 mm 0.00 in0.0 mm
02:05 AM 49.1°F9.5°C 43.5°F6.4°C 81% 1.0 mph SE1.6 kmh SE 3.0 mph4.8 kmh 30.04 in1017.3 mb 0.00 in0.0 mm 0.00 in0.0 mm 0.00 in0.0 mm
02:10 AM 48.8°F9.3°C 43.2°F6.2°C 81% 2.0 mph E3.2 kmh E 4.0 mph6.4 kmh 30.04 in1017.3 mb 0.00 in0.0 mm 0.00 in0.0 mm 0.00 in0.0 mm
02:15 AM 48.7°F9.3°C 43.1°F6.2°C 81% 3.0 mph ESE4.8 kmh ESE 4.0 mph6.4 kmh 30.04 in1017.3 mb 0.00 in0.0 mm 0.00 in0.0 mm 0.00 in0.0 mm
02:20 AM 48.7°F9.3°C 42.8°F6.0°C 80% 3.0 mph ESE4.8 kmh ESE 4.0 mph6.4 kmh 30.04 in1017.3 mb 0.00 in0.0 mm 0.00 in0.0 mm 0.00 in0.0 mm
02:25 AM 48.9°F9.4°C 43.0°F6.1°C 80% 4.0 mph ESE6.4 kmh ESE 6.0 mph9.7 kmh 30.04 in1017.3 mb 0.00 in0.0 mm 0.00 in0.0 mm 0.00 in0.0 mm
02:30 AM 49.0°F9.4°C 43.1°F6.2°C 80% 3.0 mph ESE4.8 kmh ESE 6.0 mph9.7 kmh 30.04 in1017.3 mb 0.00 in0.0 mm 0.00 in0.0 mm 0.00 in0.0 mm
02:35 AM 48.8°F9.3°C 42.9°F6.1°C 80% 5.0 mph SE8.0 kmh SE 5.0 mph8.0 kmh 30.04 in1017.3 mb 0.00 in0.0 mm 0.00 in0.0 mm 0.00 in0.0 mm
02:40 AM 48.7°F9.3°C 43.1°F6.2°C 81% 2.0 mph SE3.2 kmh SE 5.0 mph8.0 kmh 30.04 in1017.3 mb 0.00 in0.0 mm 0.00 in0.0 mm 0.00 in0.0 mm
02:45 AM 48.4°F9.1°C 42.9°F6.1°C 81% 1.0 mph SE1.6 kmh SE 3.0 mph4.8 kmh 30.04 in1017.3 mb 0.00 in0.0 mm 0.00 in0.0 mm 0.00 in0.0 mm
02:50 AM 47.9°F8.8°C 42.7°F5.9°C 82% 1.0 mph SE1.6 kmh SE 1.0 mph1.6 kmh 30.04 in1017.3 mb 0.00 in0.0 mm 0.00 in0.0 mm 0.00 in0.0 mm
02:55 AM 47.5°F8.6°C 42.9°F6.1°C 84% 1.0 mph ESE1.6 kmh ESE 2.0 mph3.2 kmh 30.04 in1017.3 mb 0.00 in0.0 mm 0.00 in0.0 mm 0.00 in0.0 mm
03:00 AM 47.3°F8.5°C 42.7°F5.9°C 84% Calm Calm 1.0 mph1.6 kmh 30.04 in1017.3 mb 0.00 in0.0 mm 0.00 in0.0 mm 0.00 in0.0 mm
03:05 AM 47.0°F8.3°C 42.7°F5.9°C 85% Calm Calm -- 30.03 in1016.9 mb 0.00 in0.0 mm 0.00 in0.0 mm 0.00 in0.0 mm
03:10 AM 46.8°F8.2°C 42.5°F5.8°C 85% 1.0 mph NNW1.6 kmh NNW 2.0 mph3.2 kmh 30.04 in1017.3 mb 0.00 in0.0 mm 0.00 in0.0 mm 0.00 in0.0 mm
03:15 AM 46.6°F8.1°C 42.6°F5.9°C 86% Calm Calm 1.0 mph1.6 kmh 30.04 in1017.3 mb 0.00 in0.0 mm 0.00 in0.0 mm 0.00 in0.0 mm
03:20 AM 46.4°F8.0°C 42.5°F5.8°C 86% Calm Calm -- 30.04 in1017.3 mb 0.00 in0.0 mm 0.00 in0.0 mm 0.00 in0.0 mm
03:25 AM 46.1°F7.8°C 42.5°F5.8°C 87% Calm Calm -- 30.04 in1017.3 mb 0.00 in0.0 mm 0.00 in0.0 mm 0.00 in0.0 mm
03:30 AM 46.0°F7.8°C 42.4°F5.8°C 87% Calm Calm -- 30.03 in1016.9 mb 0.00 in0.0 mm 0.00 in0.0 mm 0.00 in0.0 mm
03:35 AM 46.0°F7.8°C 42.4°F5.8°C 87% Calm Calm -- 30.03 in1016.9 mb 0.00 in0.0 mm 0.00 in0.0 mm 0.00 in0.0 mm
03:40 AM 45.9°F7.7°C 42.3°F5.7°C 87% Calm Calm -- 30.03 in1016.9 mb 0.00 in0.0 mm 0.00 in0.0 mm 0.00 in0.0 mm
03:45 AM 45.7°F7.6°C 42.4°F5.8°C 88% Calm Calm -- 30.03 in1016.9 mb 0.00 in0.0 mm 0.00 in0.0 mm 0.00 in0.0 mm
03:50 AM 45.5°F7.5°C 42.2°F5.7°C 88% Calm Calm -- 30.03 in1016.9 mb 0.00 in0.0 mm 0.00 in0.0 mm 0.00 in0.0 mm
03:55 AM 45.2°F7.3°C 42.2°F5.7°C 89% Calm Calm -- 30.03 in1016.9 mb 0.00 in0.0 mm 0.00 in0.0 mm 0.00 in0.0 mm
04:00 AM 44.9°F7.2°C 41.9°F5.5°C 89% Calm Calm -- 30.03 in1016.9 mb 0.00 in0.0 mm 0.00 in0.0 mm 0.00 in0.0 mm
04:05 AM 44.6°F7.0°C 41.9°F5.5°C 90% Calm Calm 2.0 mph3.2 kmh 30.03 in1016.9 mb 0.00 in0.0 mm 0.00 in0.0 mm 0.00 in0.0 mm
04:10 AM 44.5°F6.9°C 42.0°F5.6°C 91% 2.0 mph NW3.2 kmh NW 2.0 mph3.2 kmh 30.03 in1016.9 mb 0.00 in0.0 mm 0.00 in0.0 mm 0.00 in0.0 mm
04:15 AM 44.5°F6.9°C 42.0°F5.6°C 91% Calm Calm 1.0 mph1.6 kmh 30.03 in1016.9 mb 0.00 in0.0 mm 0.00 in0.0 mm 0.00 in0.0 mm
04:20 AM 44.5°F6.9°C 42.0°F5.6°C 91% Calm Calm 1.0 mph1.6 kmh 30.03 in1016.9 mb 0.00 in0.0 mm 0.00 in0.0 mm 0.00 in0.0 mm
04:25 AM 44.4°F6.9°C 41.9°F5.5°C 91% Calm Calm 1.0 mph1.6 kmh 30.02 in1016.6 mb 0.00 in0.0 mm 0.00 in0.0 mm 0.00 in0.0 mm
04:30 AM 44.4°F6.9°C 41.9°F5.5°C 91% Calm Calm 1.0 mph1.6 kmh 30.03 in1016.9 mb 0.00 in0.0 mm 0.00 in0.0 mm 0.00 in0.0 mm
04:35 AM 44.1°F6.7°C 41.7°F5.4°C 91% Calm Calm -- 30.02 in1016.6 mb 0.00 in0.0 mm 0.00 in0.0 mm 0.00 in0.0 mm
04:40 AM 43.9°F6.6°C 41.5°F5.3°C 91% Calm Calm 1.0 mph1.6 kmh 30.03 in1016.9 mb 0.00 in0.0 mm 0.00 in0.0 mm 0.00 in0.0 mm
04:45 AM 43.6°F6.4°C 41.4°F5.2°C 92% 1.0 mph NW1.6 kmh NW 1.0 mph1.6 kmh 30.03 in1016.9 mb 0.00 in0.0 mm 0.00 in0.0 mm 0.00 in0.0 mm
04:50 AM 43.5°F6.4°C 41.6°F5.3°C 93% 1.0 mph NW1.6 kmh NW 2.0 mph3.2 kmh 30.03 in1016.9 mb 0.00 in0.0 mm 0.00 in0.0 mm 0.00 in0.0 mm
04:55 AM 43.5°F6.4°C 41.6°F5.3°C 93% 1.0 mph NW1.6 kmh NW 2.0 mph3.2 kmh 30.03 in1016.9 mb 0.00 in0.0 mm 0.00 in0.0 mm 0.00 in0.0 mm
05:00 AM 43.5°F6.4°C 41.6°F5.3°C 93% Calm Calm 1.0 mph1.6 kmh 30.03 in1016.9 mb 0.00 in0.0 mm 0.00 in0.0 mm 0.00 in0.0 mm
05:05 AM 43.7°F6.5°C 41.8°F5.4°C 93% Calm Calm 1.0 mph1.6 kmh 30.03 in1016.9 mb 0.00 in0.0 mm 0.00 in0.0 mm 0.00 in0.0 mm
05:10 AM 43.5°F6.4°C 41.3°F5.2°C 92% Calm Calm -- 30.03 in1016.9 mb 0.00 in0.0 mm 0.00 in0.0 mm 0.00 in0.0 mm
05:15 AM 43.3°F6.3°C 41.1°F5.1°C 92% Calm Calm -- 30.03 in1016.9 mb 0.00 in0.0 mm 0.00 in0.0 mm 0.00 in0.0 mm
05:20 AM 42.9°F6.1°C 40.7°F4.8°C 92% Calm Calm -- 30.03 in1016.9 mb 0.00 in0.0 mm 0.00 in0.0 mm 0.00 in0.0 mm
05:25 AM 42.6°F5.9°C 40.4°F4.7°C 92% Calm Calm -- 30.04 in1017.3 mb 0.00 in0.0 mm 0.00 in0.0 mm 0.00 in0.0 mm
05:30 AM 42.4°F5.8°C 40.5°F4.7°C 93% Calm Calm -- 30.04 in1017.3 mb 0.00 in0.0 mm 0.00 in0.0 mm 0.00 in0.0 mm
05:35 AM 42.3°F5.7°C 40.7°F4.8°C 94% Calm Calm -- 30.04 in1017.3 mb 0.00 in0.0 mm 0.00 in0.0 mm 0.00 in0.0 mm
05:40 AM 42.2°F5.7°C 40.6°F4.8°C 94% Calm Calm -- 30.04 in1017.3 mb 0.00 in0.0 mm 0.00 in0.0 mm 0.00 in0.0 mm
05:45 AM 41.9°F5.5°C 40.3°F4.6°C 94% Calm Calm -- 30.04 in1017.3 mb 0.00 in0.0 mm 0.00 in0.0 mm 0.00 in0.0 mm
05:50 AM 41.7°F5.4°C 40.1°F4.5°C 94% Calm Calm 2.0 mph3.2 kmh 30.04 in1017.3 mb 0.00 in0.0 mm 0.00 in0.0 mm 0.00 in0.0 mm
05:55 AM 41.6°F5.3°C 40.0°F4.4°C 94% Calm Calm -- 30.04 in1017.3 mb 0.00 in0.0 mm 0.00 in0.0 mm 0.00 in0.0 mm
06:00 AM 41.5°F5.3°C 39.9°F4.4°C 94% Calm Calm -- 30.04 in1017.3 mb 0.00 in0.0 mm 0.00 in0.0 mm 0.00 in0.0 mm
06:05 AM 41.7°F5.4°C 40.4°F4.7°C 95% Calm Calm -- 30.04 in1017.3 mb 0.00 in0.0 mm 0.00 in0.0 mm 0.00 in0.0 mm
06:10 AM 41.9°F5.5°C 40.6°F4.8°C 95% Calm Calm -- 30.04 in1017.3 mb 0.00 in0.0 mm 0.00 in0.0 mm 0.00 in0.0 mm
06:15 AM 41.9°F5.5°C 40.6°F4.8°C 95% 2.0 mph NW3.2 kmh NW 3.0 mph4.8 kmh 30.04 in1017.3 mb 0.00 in0.0 mm 0.00 in0.0 mm 0.00 in0.0 mm
06:20 AM 41.9°F5.5°C 40.6°F4.8°C 95% 1.0 mph NW1.6 kmh NW 3.0 mph4.8 kmh 30.04 in1017.3 mb 0.00 in0.0 mm 0.00 in0.0 mm 0.00 in0.0 mm
06:25 AM 42.2°F5.7°C 41.1°F5.1°C 96% Calm Calm 3.0 mph4.8 kmh 30.04 in1017.3 mb 0.00 in0.0 mm 0.00 in0.0 mm 0.00 in0.0 mm
06:30 AM 42.6°F5.9°C 41.5°F5.3°C 96% Calm Calm 2.0 mph3.2 kmh 30.03 in1016.9 mb 0.00 in0.0 mm 0.00 in0.0 mm 0.00 in0.0 mm
06:35 AM 42.3°F5.7°C 40.7°F4.8°C 94% Calm Calm -- 30.03 in1016.9 mb 0.00 in0.0 mm 0.00 in0.0 mm 0.00 in0.0 mm
06:40 AM 42.2°F5.7°C 40.9°F4.9°C 95% Calm Calm -- 30.03 in1016.9 mb 0.00 in0.0 mm 0.00 in0.0 mm 0.00 in0.0 mm
06:45 AM 42.0°F5.6°C 40.4°F4.7°C 94% Calm Calm -- 30.04 in1017.3 mb 0.00 in0.0 mm 0.00 in0.0 mm 0.00 in0.0 mm
06:50 AM 41.5°F5.3°C 39.9°F4.4°C 94% Calm Calm -- 30.04 in1017.3 mb 0.00 in0.0 mm 0.00 in0.0 mm 0.00 in0.0 mm
06:55 AM 41.1°F5.1°C 39.5°F4.2°C 94% Calm Calm -- 30.04 in1017.3 mb 0.00 in0.0 mm 0.00 in0.0 mm 0.00 in0.0 mm
07:00 AM 40.8°F4.9°C 39.2°F4.0°C 94% Calm Calm -- 30.04 in1017.3 mb 0.00 in0.0 mm 0.00 in0.0 mm 0.00 in0.0 mm
07:05 AM 40.7°F4.8°C 39.4°F4.1°C 95% Calm Calm -- 30.04 in1017.3 mb 0.00 in0.0 mm 0.00 in0.0 mm 0.00 in0.0 mm
07:10 AM 40.7°F4.8°C 39.4°F4.1°C 95% Calm Calm -- 30.04 in1017.3 mb 0.00 in0.0 mm 0.00 in0.0 mm 0.00 in0.0 mm
07:15 AM 40.7°F4.8°C 39.7°F4.3°C 96% Calm Calm -- 30.05 in1017.6 mb 0.00 in0.0 mm 0.00 in0.0 mm 0.00 in0.0 mm
07:20 AM 40.7°F4.8°C 39.7°F4.3°C 96% Calm Calm -- 30.05 in1017.6 mb 0.00 in0.0 mm 0.00 in0.0 mm 0.00 in0.0 mm
07:25 AM 40.6°F4.8°C 39.6°F4.2°C 96% Calm Calm -- 30.05 in1017.6 mb 0.00 in0.0 mm 0.00 in0.0 mm 0.00 in0.0 mm
07:30 AM 40.7°F4.8°C 39.7°F4.3°C 96% Calm Calm -- 30.05 in1017.6 mb 0.00 in0.0 mm 0.00 in0.0 mm 0.00 in0.0 mm
07:35 AM 40.8°F4.9°C 39.8°F4.3°C 96% Calm Calm -- 30.05 in1017.6 mb 0.00 in0.0 mm 0.00 in0.0 mm 0.00 in0.0 mm
07:40 AM 41.0°F5.0°C 40.0°F4.4°C 96% Calm Calm -- 30.05 in1017.6 mb 0.00 in0.0 mm 0.00 in0.0 mm 0.00 in0.0 mm
07:45 AM 41.0°F5.0°C 40.0°F4.4°C 96% Calm Calm -- 30.05 in1017.6 mb 0.00 in0.0 mm 0.00 in0.0 mm 0.00 in0.0 mm
07:50 AM 41.2°F5.1°C 40.2°F4.6°C 96% Calm Calm -- 30.05 in1017.6 mb 0.00 in0.0 mm 0.00 in0.0 mm 0.00 in0.0 mm
07:55 AM 41.3°F5.2°C 40.5°F4.7°C 97% Calm Calm -- 30.05 in1017.6 mb 0.00 in0.0 mm 0.00 in0.0 mm 0.00 in0.0 mm
08:00 AM 41.3°F5.2°C 40.3°F4.6°C 96% Calm Calm -- 30.05 in1017.6 mb 0.00 in0.0 mm 0.00 in0.0 mm 0.00 in0.0 mm
08:05 AM 41.1°F5.1°C 40.1°F4.5°C 96% Calm Calm -- 30.05 in1017.6 mb 0.00 in0.0 mm 0.00 in0.0 mm 0.00 in0.0 mm
08:10 AM 40.9°F4.9°C 39.9°F4.4°C 96% Calm Calm -- 30.05 in1017.6 mb 0.00 in0.0 mm 0.00 in0.0 mm 0.00 in0.0 mm
08:15 AM 40.9°F4.9°C 39.9°F4.4°C 96% Calm Calm -- 30.05 in1017.6 mb 0.00 in0.0 mm 0.00 in0.0 mm 0.00 in0.0 mm
08:20 AM 41.1°F5.1°C 40.1°F4.5°C 96% Calm Calm -- 30.06 in1017.9 mb 0.00 in0.0 mm 0.00 in0.0 mm 0.00 in0.0 mm
08:25 AM 41.4°F5.2°C 40.6°F4.8°C 97% Calm Calm -- 30.06 in1017.9 mb 0.00 in0.0 mm 0.00 in0.0 mm 0.00 in0.0 mm
08:30 AM 41.6°F5.3°C 40.8°F4.9°C 97% Calm Calm -- 30.06 in1017.9 mb 0.00 in0.0 mm 0.00 in0.0 mm 0.00 in0.0 mm
08:35 AM 42.5°F5.8°C 41.7°F5.4°C 97% Calm Calm -- 30.06 in1017.9 mb 0.00 in0.0 mm 0.00 in0.0 mm 0.00 in0.0 mm
08:40 AM 43.2°F6.2°C 42.4°F5.8°C 97% Calm Calm -- 30.07 in1018.3 mb 0.00 in0.0 mm 0.00 in0.0 mm 0.00 in0.0 mm
08:45 AM 43.7°F6.5°C 42.9°F6.1°C 97% Calm Calm -- 30.07 in1018.3 mb 0.00 in0.0 mm 0.00 in0.0 mm 0.00 in0.0 mm
08:50 AM 44.3°F6.8°C 43.5°F6.4°C 97% Calm Calm -- 30.07 in1018.3 mb 0.00 in0.0 mm 0.00 in0.0 mm 0.00 in0.0 mm
08:55 AM 45.2°F7.3°C 44.1°F6.7°C 96% Calm Calm -- 30.07 in1018.3 mb 0.00 in0.0 mm 0.00 in0.0 mm 0.00 in0.0 mm
09:00 AM 46.5°F8.1°C 45.4°F7.4°C 96% Calm Calm -- 30.07 in1018.3 mb 0.00 in0.0 mm 0.00 in0.0 mm 0.00 in0.0 mm
09:05 AM 47.8°F8.8°C 46.4°F8.0°C 95% Calm Calm -- 30.07 in1018.3 mb 0.00 in0.0 mm 0.00 in0.0 mm 0.00 in0.0 mm
09:10 AM 48.7°F9.3°C 46.2°F7.9°C 91% Calm Calm -- 30.08 in1018.6 mb 0.00 in0.0 mm 0.00 in0.0 mm 0.00 in0.0 mm
09:15 AM 49.4°F9.7°C 46.3°F7.9°C 89% Calm Calm 1.0 mph1.6 kmh 30.08 in1018.6 mb 0.00 in0.0 mm 0.00 in0.0 mm 0.00 in0.0 mm
09:20 AM 49.6°F9.8°C 45.3°F7.4°C 85% 2.0 mph S3.2 kmh S 3.0 mph4.8 kmh 30.08 in1018.6 mb 0.00 in0.0 mm 0.00 in0.0 mm 0.00 in0.0 mm
09:25 AM 49.9°F9.9°C 45.9°F7.7°C 86% 3.0 mph ESE4.8 kmh ESE 3.0 mph4.8 kmh 30.08 in1018.6 mb 0.00 in0.0 mm 0.00 in0.0 mm 0.00 in0.0 mm
09:30 AM 50.4°F10.2°C 45.4°F7.4°C 83% 2.0 mph SE3.2 kmh SE 7.0 mph11.3 kmh 30.08 in1018.6 mb 0.00 in0.0 mm 0.00 in0.0 mm 0.00 in0.0 mm
09:40 AM 50.6°F10.3°C 45.3°F7.4°C 82% Calm Calm 6.0 mph9.7 kmh 30.08 in1018.6 mb 0.00 in0.0 mm 0.00 in0.0 mm 0.00 in0.0 mm
09:45 AM 50.5°F10.3°C 44.9°F7.2°C 81% 2.0 mph SE3.2 kmh SE 5.0 mph8.0 kmh 30.08 in1018.6 mb 0.00 in0.0 mm 0.00 in0.0 mm 0.00 in0.0 mm
09:50 AM 50.5°F10.3°C 44.9°F7.2°C 81% 6.0 mph SE9.7 kmh SE 6.0 mph9.7 kmh 30.08 in1018.6 mb 0.00 in0.0 mm 0.00 in0.0 mm 0.00 in0.0 mm
09:55 AM 50.7°F10.4°C 45.1°F7.3°C 81% 4.0 mph ESE6.4 kmh ESE 6.0 mph9.7 kmh 30.08 in1018.6 mb 0.00 in0.0 mm 0.00 in0.0 mm 0.00 in0.0 mm
10:00 AM 51.2°F10.7°C 46.2°F7.9°C 83% 4.0 mph SSE6.4 kmh SSE 5.0 mph8.0 kmh 30.08 in1018.6 mb 0.00 in0.0 mm 0.00 in0.0 mm 0.00 in0.0 mm
10:05 AM 51.4°F10.8°C 45.5°F7.5°C 80% 1.0 mph SE1.6 kmh SE 6.0 mph9.7 kmh 30.08 in1018.6 mb 0.00 in0.0 mm 0.00 in0.0 mm 0.00 in0.0 mm
10:10 AM 51.2°F10.7°C 44.9°F7.2°C 79% Calm Calm 4.0 mph6.4 kmh 30.08 in1018.6 mb 0.00 in0.0 mm 0.00 in0.0 mm 0.00 in0.0 mm
10:15 AM 51.7°F10.9°C 45.4°F7.4°C 79% 5.0 mph ESE8.0 kmh ESE 6.0 mph9.7 kmh 30.07 in1018.3 mb 0.00 in0.0 mm 0.00 in0.0 mm 0.00 in0.0 mm
10:20 AM 52.2°F11.2°C 45.2°F7.3°C 77% 2.0 mph E3.2 kmh E 3.0 mph4.8 kmh 30.07 in1018.3 mb 0.00 in0.0 mm 0.00 in0.0 mm 0.00 in0.0 mm
10:25 AM 53.0°F11.7°C 45.7°F7.6°C 76% 3.0 mph SSE4.8 kmh SSE 5.0 mph8.0 kmh 30.07 in1018.3 mb 0.00 in0.0 mm 0.00 in0.0 mm 0.00 in0.0 mm
10:35 AM 53.8°F12.1°C 46.1°F7.8°C 75% 3.0 mph SE4.8 kmh SE 7.0 mph11.3 kmh 30.07 in1018.3 mb 0.00 in0.0 mm 0.00 in0.0 mm 0.00 in0.0 mm
10:40 AM 54.2°F12.3°C 45.0°F7.2°C 71% 4.0 mph SE6.4 kmh SE 9.0 mph14.5 kmh 30.07 in1018.3 mb 0.00 in0.0 mm 0.00 in0.0 mm 0.00 in0.0 mm
10:45 AM 54.2°F12.3°C 45.4°F7.4°C 72% 2.0 mph SSE3.2 kmh SSE 8.0 mph12.9 kmh 30.06 in1017.9 mb 0.00 in0.0 mm 0.00 in0.0 mm 0.00 in0.0 mm
10:50 AM 54.4°F12.4°C 45.6°F7.6°C 72% 5.0 mph E8.0 kmh E 9.0 mph14.5 kmh 30.06 in1017.9 mb 0.00 in0.0 mm 0.00 in0.0 mm 0.00 in0.0 mm
10:55 AM 54.5°F12.5°C 45.3°F7.4°C 71% 2.0 mph ESE3.2 kmh ESE 10.0 mph16.1 kmh 30.06 in1017.9 mb 0.00 in0.0 mm 0.00 in0.0 mm 0.00 in0.0 mm
11:00 AM 54.3°F12.4°C 45.8°F7.7°C 73% 7.0 mph SE11.3 kmh SE 9.0 mph14.5 kmh 30.06 in1017.9 mb 0.00 in0.0 mm 0.00 in0.0 mm 0.00 in0.0 mm
11:05 AM 54.7°F12.6°C 45.1°F7.3°C 70% 7.0 mph E11.3 kmh E 10.0 mph16.1 kmh 30.06 in1017.9 mb 0.00 in0.0 mm 0.00 in0.0 mm 0.00 in0.0 mm
11:10 AM 55.1°F12.8°C 45.5°F7.5°C 70% 4.0 mph SE6.4 kmh SE 9.0 mph14.5 kmh 30.06 in1017.9 mb 0.00 in0.0 mm 0.00 in0.0 mm 0.00 in0.0 mm
11:15 AM 55.4°F13.0°C 44.6°F7.0°C 67% 8.0 mph SE12.9 kmh SE 9.0 mph14.5 kmh 30.06 in1017.9 mb 0.00 in0.0 mm 0.00 in0.0 mm 0.00 in0.0 mm
11:20 AM 55.2°F12.9°C 45.2°F7.3°C 69% 4.0 mph SE6.4 kmh SE 12.0 mph19.3 kmh 30.06 in1017.9 mb 0.00 in0.0 mm 0.00 in0.0 mm 0.00 in0.0 mm
11:25 AM 55.2°F12.9°C 45.2°F7.3°C 69% 8.0 mph E12.9 kmh E 10.0 mph16.1 kmh 30.06 in1017.9 mb 0.00 in0.0 mm 0.00 in0.0 mm 0.00 in0.0 mm
11:30 AM 55.0°F12.8°C 44.7°F7.1°C 68% 3.0 mph ESE4.8 kmh ESE 10.0 mph16.1 kmh 30.06 in1017.9 mb 0.00 in0.0 mm 0.00 in0.0 mm 0.00 in0.0 mm
11:35 AM 55.7°F13.2°C 46.1°F7.8°C 70% 10.0 mph SE16.1 kmh SE 12.0 mph19.3 kmh 30.06 in1017.9 mb 0.00 in0.0 mm 0.00 in0.0 mm 0.00 in0.0 mm
11:40 AM 55.5°F13.1°C 44.3°F6.8°C 66% 5.0 mph ESE8.0 kmh ESE 9.0 mph14.5 kmh 30.05 in1017.6 mb 0.00 in0.0 mm 0.00 in0.0 mm 0.00 in0.0 mm
11:45 AM 55.6°F13.1°C 45.2°F7.3°C 68% 5.0 mph SE8.0 kmh SE 7.0 mph11.3 kmh 30.05 in1017.6 mb 0.00 in0.0 mm 0.00 in0.0 mm 0.00 in0.0 mm
11:50 AM 55.7°F13.2°C 44.9°F7.2°C 67% 10.0 mph SE16.1 kmh SE 10.0 mph16.1 kmh 30.05 in1017.6 mb 0.00 in0.0 mm 0.00 in0.0 mm 0.00 in0.0 mm
11:55 AM 56.0°F13.3°C 44.0°F6.7°C 64% 3.0 mph E4.8 kmh E 10.0 mph16.1 kmh 30.05 in1017.6 mb 0.00 in0.0 mm 0.00 in0.0 mm 0.00 in0.0 mm
12:00 PM 56.0°F13.3°C 44.8°F7.1°C 66% 8.0 mph E12.9 kmh E 8.0 mph12.9 kmh 30.05 in1017.6 mb 0.00 in0.0 mm 0.00 in0.0 mm 0.00 in0.0 mm
12:05 PM 55.3°F12.9°C 44.5°F6.9°C 67% 3.0 mph ESE4.8 kmh ESE 11.0 mph17.7 kmh 30.05 in1017.6 mb 0.00 in0.0 mm 0.00 in0.0 mm 0.00 in0.0 mm
12:10 PM 55.3°F12.9°C 44.9°F7.2°C 68% 9.0 mph SE14.5 kmh SE 11.0 mph17.7 kmh 30.05 in1017.6 mb 0.00 in0.0 mm 0.00 in0.0 mm 0.00 in0.0 mm
12:15 PM 55.3°F12.9°C 44.5°F6.9°C 67% 5.0 mph SE8.0 kmh SE 11.0 mph17.7 kmh 30.05 in1017.6 mb 0.00 in0.0 mm 0.00 in0.0 mm 0.00 in0.0 mm
12:20 PM 55.0°F12.8°C 44.3°F6.8°C 67% 3.0 mph ESE4.8 kmh ESE 11.0 mph17.7 kmh 30.05 in1017.6 mb 0.00 in0.0 mm 0.00 in0.0 mm 0.00 in0.0 mm
12:25 PM 55.1°F12.8°C 45.5°F7.5°C 70% 8.0 mph ESE12.9 kmh ESE 8.0 mph12.9 kmh 30.05 in1017.6 mb 0.00 in0.0 mm 0.00 in0.0 mm 0.00 in0.0 mm
12:30 PM 55.0°F12.8°C 46.2°F7.9°C 72% 4.0 mph S6.4 kmh S 11.0 mph17.7 kmh 30.05 in1017.6 mb 0.00 in0.0 mm 0.00 in0.0 mm 0.00 in0.0 mm
12:35 PM 54.8°F12.7°C 46.0°F7.8°C 72% 3.0 mph SE4.8 kmh SE 8.0 mph12.9 kmh 30.05 in1017.6 mb 0.00 in0.0 mm 0.00 in0.0 mm 0.00 in0.0 mm
12:40 PM 54.7°F12.6°C 46.2°F7.9°C 73% 5.0 mph SE8.0 kmh SE 8.0 mph12.9 kmh 30.05 in1017.6 mb 0.00 in0.0 mm 0.00 in0.0 mm 0.00 in0.0 mm
12:45 PM 54.4°F12.4°C 45.9°F7.7°C 73% 6.0 mph ESE9.7 kmh ESE 9.0 mph14.5 kmh 30.04 in1017.3 mb 0.00 in0.0 mm 0.00 in0.0 mm 0.00 in0.0 mm
12:50 PM 54.7°F12.6°C 46.6°F8.1°C 74% 6.0 mph E9.7 kmh E 7.0 mph11.3 kmh 30.04 in1017.3 mb 0.00 in0.0 mm 0.00 in0.0 mm 0.00 in0.0 mm
12:55 PM 54.8°F12.7°C 46.0°F7.8°C 72% 7.0 mph SE11.3 kmh SE 10.0 mph16.1 kmh 30.04 in1017.3 mb 0.00 in0.0 mm 0.00 in0.0 mm 0.00 in0.0 mm
01:00 PM 55.2°F12.9°C 46.7°F8.2°C 73% 8.0 mph SSE12.9 kmh SSE 11.0 mph17.7 kmh 30.04 in1017.3 mb 0.00 in0.0 mm 0.00 in0.0 mm 0.00 in0.0 mm
01:05 PM 54.8°F12.7°C 46.0°F7.8°C 72% 3.0 mph SSE4.8 kmh SSE 12.0 mph19.3 kmh 30.04 in1017.3 mb 0.00 in0.0 mm 0.00 in0.0 mm 0.00 in0.0 mm
01:10 PM 54.8°F12.7°C 47.0°F8.3°C 75% 4.0 mph SE6.4 kmh SE 11.0 mph17.7 kmh 30.04 in1017.3 mb 0.00 in0.0 mm 0.00 in0.0 mm 0.00 in0.0 mm
01:15 PM 54.7°F12.6°C 46.2°F7.9°C 73% 9.0 mph ESE14.5 kmh ESE 12.0 mph19.3 kmh 30.04 in1017.3 mb 0.00 in0.0 mm 0.00 in0.0 mm 0.00 in0.0 mm
01:20 PM 54.6°F12.6°C 46.5°F8.1°C 74% 7.0 mph SSE11.3 kmh SSE 10.0 mph16.1 kmh 30.04 in1017.3 mb 0.00 in0.0 mm 0.00 in0.0 mm 0.00 in0.0 mm
01:25 PM 54.6°F12.6°C 46.1°F7.8°C 73% 7.0 mph SE11.3 kmh SE 11.0 mph17.7 kmh 30.03 in1016.9 mb 0.00 in0.0 mm 0.00 in0.0 mm 0.00 in0.0 mm
01:30 PM 55.0°F12.8°C 46.9°F8.3°C 74% 4.0 mph SSW6.4 kmh SSW 13.0 mph20.9 kmh 30.03 in1016.9 mb 0.00 in0.0 mm 0.00 in0.0 mm 0.00 in0.0 mm
01:35 PM 56.3°F13.5°C 47.4°F8.6°C 72% 8.0 mph SE12.9 kmh SE 11.0 mph17.7 kmh 30.03 in1016.9 mb 0.00 in0.0 mm 0.00 in0.0 mm 0.00 in0.0 mm
01:40 PM 55.8°F13.2°C 46.9°F8.3°C 72% 5.0 mph SSW8.0 kmh SSW 9.0 mph14.5 kmh 30.02 in1016.6 mb 0.00 in0.0 mm 0.00 in0.0 mm 0.00 in0.0 mm
01:45 PM 55.8°F13.2°C 47.3°F8.5°C 73% 3.0 mph SE4.8 kmh SE 7.0 mph11.3 kmh 30.02 in1016.6 mb 0.00 in0.0 mm 0.00 in0.0 mm 0.00 in0.0 mm
01:50 PM 55.5°F13.1°C 47.0°F8.3°C 73% 5.0 mph SE8.0 kmh SE 10.0 mph16.1 kmh 30.02 in1016.6 mb 0.00 in0.0 mm 0.00 in0.0 mm 0.00 in0.0 mm
01:55 PM 55.1°F12.8°C 46.6°F8.1°C 73% 4.0 mph S6.4 kmh S 11.0 mph17.7 kmh 30.02 in1016.6 mb 0.00 in0.0 mm 0.00 in0.0 mm 0.00 in0.0 mm
02:00 PM 55.3°F12.9°C 47.2°F8.4°C 74% 7.0 mph SE11.3 kmh SE 8.0 mph12.9 kmh 30.02 in1016.6 mb 0.00 in0.0 mm 0.00 in0.0 mm 0.00 in0.0 mm
02:05 PM 55.2°F12.9°C 46.3°F7.9°C 72% 4.0 mph S6.4 kmh S 13.0 mph20.9 kmh 30.01 in1016.3 mb 0.00 in0.0 mm 0.00 in0.0 mm 0.00 in0.0 mm
02:10 PM 55.4°F13.0°C 46.9°F8.3°C 73% 5.0 mph SSE8.0 kmh SSE 9.0 mph14.5 kmh 30.01 in1016.3 mb 0.00 in0.0 mm 0.00 in0.0 mm 0.00 in0.0 mm
02:15 PM 55.6°F13.1°C 46.4°F8.0°C 71% 8.0 mph SE12.9 kmh SE 10.0 mph16.1 kmh 30.01 in1016.3 mb 0.00 in0.0 mm 0.00 in0.0 mm 0.00 in0.0 mm
02:20 PM 55.4°F13.0°C 46.2°F7.9°C 71% 5.0 mph SE8.0 kmh SE 10.0 mph16.1 kmh 30.01 in1016.3 mb 0.00 in0.0 mm 0.00 in0.0 mm 0.00 in0.0 mm
02:25 PM 55.0°F12.8°C 45.4°F7.4°C 70% 4.0 mph SE6.4 kmh SE 12.0 mph19.3 kmh 30.00 in1015.9 mb 0.00 in0.0 mm 0.00 in0.0 mm 0.00 in0.0 mm
02:30 PM 54.9°F12.7°C 45.3°F7.4°C 70% 7.0 mph SE11.3 kmh SE 13.0 mph20.9 kmh 30.00 in1015.9 mb 0.00 in0.0 mm 0.00 in0.0 mm 0.00 in0.0 mm
02:35 PM 55.0°F12.8°C 45.0°F7.2°C 69% 7.0 mph ESE11.3 kmh ESE 11.0 mph17.7 kmh 30.00 in1015.9 mb 0.00 in0.0 mm 0.00 in0.0 mm 0.00 in0.0 mm
02:40 PM 55.1°F12.8°C 45.5°F7.5°C 70% 3.0 mph SE4.8 kmh SE 11.0 mph17.7 kmh 30.00 in1015.9 mb 0.00 in0.0 mm 0.00 in0.0 mm 0.00 in0.0 mm
02:45 PM 55.0°F12.8°C 45.8°F7.7°C 71% 6.0 mph SW9.7 kmh SW 11.0 mph17.7 kmh 30.00 in1015.9 mb 0.00 in0.0 mm 0.00 in0.0 mm 0.00 in0.0 mm
02:50 PM 55.1°F12.8°C 45.5°F7.5°C 70% 4.0 mph E6.4 kmh E 10.0 mph16.1 kmh 30.00 in1015.9 mb 0.00 in0.0 mm 0.00 in0.0 mm 0.00 in0.0 mm
02:55 PM 55.3°F12.9°C 45.3°F7.4°C 69% 6.0 mph E9.7 kmh E 13.0 mph20.9 kmh 30.00 in1015.9 mb 0.00 in0.0 mm 0.00 in0.0 mm 0.00 in0.0 mm
03:00 PM 55.6°F13.1°C 46.0°F7.8°C 70% 4.0 mph SSE6.4 kmh SSE 10.0 mph16.1 kmh 30.00 in1015.9 mb 0.00 in0.0 mm 0.00 in0.0 mm 0.00 in0.0 mm
03:05 PM 56.0°F13.3°C 45.2°F7.3°C 67% 8.0 mph E12.9 kmh E 14.0 mph22.5 kmh 30.00 in1015.9 mb 0.00 in0.0 mm 0.00 in0.0 mm 0.00 in0.0 mm
03:10 PM 55.8°F13.2°C 45.8°F7.7°C 69% 10.0 mph SE16.1 kmh SE 17.0 mph27.4 kmh 30.00 in1015.9 mb 0.00 in0.0 mm 0.00 in0.0 mm 0.00 in0.0 mm
03:15 PM 55.5°F13.1°C 45.1°F7.3°C 68% 5.0 mph SE8.0 kmh SE 15.0 mph24.1 kmh 30.00 in1015.9 mb 0.00 in0.0 mm 0.00 in0.0 mm 0.00 in0.0 mm
03:20 PM 55.5°F13.1°C 45.9°F7.7°C 70% 4.0 mph S6.4 kmh S 11.0 mph17.7 kmh 30.00 in1015.9 mb 0.00 in0.0 mm 0.00 in0.0 mm 0.00 in0.0 mm
03:25 PM 55.4°F13.0°C 46.2°F7.9°C 71% 6.0 mph S9.7 kmh S 12.0 mph19.3 kmh 30.00 in1015.9 mb 0.00 in0.0 mm 0.00 in0.0 mm 0.00 in0.0 mm
03:30 PM 55.2°F12.9°C 46.0°F7.8°C 71% 9.0 mph ESE14.5 kmh ESE 11.0 mph17.7 kmh 30.00 in1015.9 mb 0.00 in0.0 mm 0.00 in0.0 mm 0.00 in0.0 mm
03:35 PM 55.1°F12.8°C 45.1°F7.3°C 69% 11.0 mph ESE17.7 kmh ESE 11.0 mph17.7 kmh 30.00 in1015.9 mb 0.00 in0.0 mm 0.00 in0.0 mm 0.00 in0.0 mm
03:40 PM 55.1°F12.8°C 45.5°F7.5°C 70% 5.0 mph SE8.0 kmh SE 11.0 mph17.7 kmh 29.99 in1015.6 mb 0.00 in0.0 mm 0.00 in0.0 mm 0.00 in0.0 mm
03:45 PM 55.0°F12.8°C 45.4°F7.4°C 70% 8.0 mph E12.9 kmh E 12.0 mph19.3 kmh 29.99 in1015.6 mb 0.00 in0.0 mm 0.00 in0.0 mm 0.00 in0.0 mm
03:50 PM 55.0°F12.8°C 45.4°F7.4°C 70% 1.0 mph SE1.6 kmh SE 12.0 mph19.3 kmh 29.99 in1015.6 mb 0.00 in0.0 mm 0.00 in0.0 mm 0.00 in0.0 mm
03:55 PM 55.0°F12.8°C 45.4°F7.4°C 70% 5.0 mph ESE8.0 kmh ESE 9.0 mph14.5 kmh 29.99 in1015.6 mb 0.00 in0.0 mm 0.00 in0.0 mm 0.00 in0.0 mm
04:00 PM 55.0°F12.8°C 45.4°F7.4°C 70% 9.0 mph E14.5 kmh E 12.0 mph19.3 kmh 29.99 in1015.6 mb 0.00 in0.0 mm 0.00 in0.0 mm 0.00 in0.0 mm
04:05 PM 55.1°F12.8°C 45.9°F7.7°C 71% 3.0 mph SSE4.8 kmh SSE 12.0 mph19.3 kmh 29.98 in1015.2 mb 0.00 in0.0 mm 0.00 in0.0 mm 0.00 in0.0 mm
04:10 PM 55.1°F12.8°C 45.1°F7.3°C 69% 7.0 mph SE11.3 kmh SE 15.0 mph24.1 kmh 29.98 in1015.2 mb 0.00 in0.0 mm 0.00 in0.0 mm 0.00 in0.0 mm
04:15 PM 55.2°F12.9°C 45.2°F7.3°C 69% 7.0 mph SSE11.3 kmh SSE 12.0 mph19.3 kmh 29.98 in1015.2 mb 0.00 in0.0 mm 0.00 in0.0 mm 0.00 in0.0 mm
04:20 PM 55.1°F12.8°C 45.1°F7.3°C 69% 4.0 mph E6.4 kmh E 10.0 mph16.1 kmh 29.98 in1015.2 mb 0.00 in0.0 mm 0.00 in0.0 mm 0.00 in0.0 mm
04:25 PM 55.3°F12.9°C 45.7°F7.6°C 70% 6.0 mph ESE9.7 kmh ESE 10.0 mph16.1 kmh 29.98 in1015.2 mb 0.00 in0.0 mm 0.00 in0.0 mm 0.00 in0.0 mm
04:30 PM 55.2°F12.9°C 46.0°F7.8°C 71% 6.0 mph SE9.7 kmh SE 11.0 mph17.7 kmh 29.98 in1015.2 mb 0.00 in0.0 mm 0.00 in0.0 mm 0.00 in0.0 mm
04:35 PM 55.2°F12.9°C 45.6°F7.6°C 70% 7.0 mph ESE11.3 kmh ESE 10.0 mph16.1 kmh 29.98 in1015.2 mb 0.00 in0.0 mm 0.00 in0.0 mm 0.00 in0.0 mm
04:40 PM 55.0°F12.8°C 45.4°F7.4°C 70% 6.0 mph ESE9.7 kmh ESE 11.0 mph17.7 kmh 29.98 in1015.2 mb 0.00 in0.0 mm 0.00 in0.0 mm 0.00 in0.0 mm
04:45 PM 54.9°F12.7°C 44.6°F7.0°C 68% 5.0 mph SE8.0 kmh SE 10.0 mph16.1 kmh 29.98 in1015.2 mb 0.00 in0.0 mm 0.00 in0.0 mm 0.00 in0.0 mm
04:50 PM 54.9°F12.7°C 44.6°F7.0°C 68% 5.0 mph ESE8.0 kmh ESE 11.0 mph17.7 kmh 29.98 in1015.2 mb 0.00 in0.0 mm 0.00 in0.0 mm 0.00 in0.0 mm
04:55 PM 54.9°F12.7°C 44.6°F7.0°C 68% 3.0 mph ESE4.8 kmh ESE 9.0 mph14.5 kmh 29.98 in1015.2 mb 0.00 in0.0 mm 0.00 in0.0 mm 0.00 in0.0 mm
05:00 PM 55.0°F12.8°C 45.4°F7.4°C 70% 3.0 mph SE4.8 kmh SE 6.0 mph9.7 kmh 29.97 in1014.9 mb 0.00 in0.0 mm 0.00 in0.0 mm 0.00 in0.0 mm
05:05 PM 55.0°F12.8°C 44.7°F7.1°C 68% 5.0 mph SE8.0 kmh SE 9.0 mph14.5 kmh 29.97 in1014.9 mb 0.00 in0.0 mm 0.00 in0.0 mm 0.00 in0.0 mm
05:10 PM 54.9°F12.7°C 44.2°F6.8°C 67% 3.0 mph SE4.8 kmh SE 11.0 mph17.7 kmh 29.97 in1014.9 mb 0.00 in0.0 mm 0.00 in0.0 mm 0.00 in0.0 mm
05:15 PM 54.8°F12.7°C 44.5°F6.9°C 68% 6.0 mph SE9.7 kmh SE 9.0 mph14.5 kmh 29.97 in1014.9 mb 0.00 in0.0 mm 0.00 in0.0 mm 0.00 in0.0 mm
05:20 PM 54.8°F12.7°C 44.5°F6.9°C 68% 6.0 mph SE9.7 kmh SE 9.0 mph14.5 kmh 29.97 in1014.9 mb 0.00 in0.0 mm 0.00 in0.0 mm 0.00 in0.0 mm
05:25 PM 54.7°F12.6°C 44.0°F6.7°C 67% 3.0 mph E4.8 kmh E 9.0 mph14.5 kmh 29.97 in1014.9 mb 0.00 in0.0 mm 0.00 in0.0 mm 0.00 in0.0 mm
05:30 PM 54.7°F12.6°C 44.4°F6.9°C 68% 3.0 mph S4.8 kmh S 9.0 mph14.5 kmh 29.96 in1014.6 mb 0.00 in0.0 mm 0.00 in0.0 mm 0.00 in0.0 mm
05:35 PM 54.7°F12.6°C 44.7°F7.1°C 69% 3.0 mph SE4.8 kmh SE 9.0 mph14.5 kmh 29.96 in1014.6 mb 0.00 in0.0 mm 0.00 in0.0 mm 0.00 in0.0 mm
05:40 PM 54.7°F12.6°C 44.7°F7.1°C 69% 2.0 mph SE3.2 kmh SE 7.0 mph11.3 kmh 29.96 in1014.6 mb 0.00 in0.0 mm 0.00 in0.0 mm 0.00 in0.0 mm
05:45 PM 54.6°F12.6°C 46.1°F7.8°C 73% 4.0 mph S6.4 kmh S 8.0 mph12.9 kmh 29.96 in1014.6 mb 0.00 in0.0 mm 0.00 in0.0 mm 0.00 in0.0 mm
05:50 PM 53.5°F11.9°C 46.8°F8.2°C 78% Calm Calm 9.0 mph14.5 kmh 29.96 in1014.6 mb 0.00 in0.0 mm 0.00 in0.0 mm 0.00 in0.0 mm
05:55 PM 53.1°F11.7°C 46.8°F8.2°C 79% Calm Calm 2.0 mph3.2 kmh 29.96 in1014.6 mb 0.00 in0.0 mm 0.00 in0.0 mm 0.00 in0.0 mm
06:00 PM 52.9°F11.6°C 46.6°F8.1°C 79% Calm Calm 5.0 mph8.0 kmh 29.96 in1014.6 mb 0.00 in0.0 mm 0.00 in0.0 mm 0.00 in0.0 mm
06:05 PM 52.6°F11.4°C 46.3°F7.9°C 79% Calm Calm 1.0 mph1.6 kmh 29.96 in1014.6 mb 0.00 in0.0 mm 0.00 in0.0 mm 0.00 in0.0 mm
06:10 PM 52.2°F11.2°C 46.2°F7.9°C 80% Calm Calm 1.0 mph1.6 kmh 29.96 in1014.6 mb 0.00 in0.0 mm 0.00 in0.0 mm 0.00 in0.0 mm
06:15 PM 51.9°F11.1°C 46.3°F7.9°C 81% Calm Calm 1.0 mph1.6 kmh 29.96 in1014.6 mb 0.00 in0.0 mm 0.00 in0.0 mm 0.00 in0.0 mm
06:20 PM 51.6°F10.9°C 46.3°F7.9°C 82% Calm Calm 1.0 mph1.6 kmh 29.96 in1014.6 mb 0.00 in0.0 mm 0.00 in0.0 mm 0.00 in0.0 mm
06:25 PM 51.2°F10.7°C 45.6°F7.6°C 81% Calm Calm 2.0 mph3.2 kmh 29.97 in1014.9 mb 0.00 in0.0 mm 0.00 in0.0 mm 0.00 in0.0 mm
06:30 PM 50.7°F10.4°C 44.4°F6.9°C 79% 4.0 mph S6.4 kmh S 8.0 mph12.9 kmh 29.98 in1015.2 mb 0.00 in0.0 mm 0.00 in0.0 mm 0.00 in0.0 mm
06:35 PM 49.4°F9.7°C 43.5°F6.4°C 80% 4.0 mph SW6.4 kmh SW 14.0 mph22.5 kmh 29.99 in1015.6 mb 0.00 in0.0 mm 0.00 in0.0 mm 0.00 in0.0 mm
06:40 PM 48.2°F9.0°C 43.0°F6.1°C 82% 5.0 mph SW8.0 kmh SW 9.0 mph14.5 kmh 29.99 in1015.6 mb 0.00 in0.0 mm 0.00 in0.0 mm 0.00 in0.0 mm
06:45 PM 47.3°F8.5°C 42.7°F5.9°C 84% 3.0 mph W4.8 kmh W 8.0 mph12.9 kmh 29.98 in1015.2 mb 0.04 in1.0 mm 0.48 in12.2 mm 0.04 in1.0 mm
06:50 PM 45.9°F7.7°C 42.0°F5.6°C 86% 1.0 mph WNW1.6 kmh WNW 10.0 mph16.1 kmh 29.97 in1014.9 mb 0.09 in2.3 mm 0.60 in15.2 mm 0.09 in2.3 mm
06:55 PM 45.3°F7.4°C 42.3°F5.7°C 89% 3.0 mph SSE4.8 kmh SSE 7.0 mph11.3 kmh 29.99 in1015.6 mb 0.09 in2.3 mm 0.00 in0.0 mm 0.09 in2.3 mm
07:00 PM 45.0°F7.2°C 42.0°F5.6°C 89% 4.0 mph NW6.4 kmh NW 4.0 mph6.4 kmh 29.98 in1015.2 mb 0.09 in2.3 mm 0.00 in0.0 mm 0.09 in2.3 mm
07:05 PM 44.9°F7.2°C 42.4°F5.8°C 91% 1.0 mph NNE1.6 kmh NNE 3.0 mph4.8 kmh 29.98 in1015.2 mb 0.09 in2.3 mm 0.00 in0.0 mm 0.09 in2.3 mm
07:10 PM 44.8°F7.1°C 42.6°F5.9°C 92% Calm Calm 1.0 mph1.6 kmh 29.98 in1015.2 mb 0.09 in2.3 mm 0.00 in0.0 mm 0.09 in2.3 mm
07:15 PM 44.9°F7.2°C 43.0°F6.1°C 93% Calm Calm 1.0 mph1.6 kmh 29.98 in1015.2 mb 0.09 in2.3 mm 0.00 in0.0 mm 0.09 in2.3 mm
07:20 PM 45.0°F7.2°C 43.1°F6.2°C 93% 2.0 mph NW3.2 kmh NW 3.0 mph4.8 kmh 29.98 in1015.2 mb 0.09 in2.3 mm 0.00 in0.0 mm 0.09 in2.3 mm
07:25 PM 45.0°F7.2°C 43.1°F6.2°C 93% Calm Calm 2.0 mph3.2 kmh 29.98 in1015.2 mb 0.09 in2.3 mm 0.00 in0.0 mm 0.09 in2.3 mm
07:30 PM 45.1°F7.3°C 43.5°F6.4°C 94% Calm Calm 1.0 mph1.6 kmh 29.98 in1015.2 mb 0.10 in2.5 mm 0.12 in3.0 mm 0.10 in2.5 mm
07:35 PM 45.1°F7.3°C 43.5°F6.4°C 94% Calm Calm 2.0 mph3.2 kmh 29.97 in1014.9 mb 0.12 in3.0 mm 0.24 in6.1 mm 0.12 in3.0 mm
07:40 PM 45.0°F7.2°C 43.4°F6.3°C 94% Calm Calm 3.0 mph4.8 kmh 29.97 in1014.9 mb 0.13 in3.3 mm 0.12 in3.0 mm 0.13 in3.3 mm
07:45 PM 45.0°F7.2°C 43.7°F6.5°C 95% Calm Calm -- 29.97 in1014.9 mb 0.13 in3.3 mm 0.00 in0.0 mm 0.13 in3.3 mm
07:50 PM 45.1°F7.3°C 43.8°F6.6°C 95% Calm Calm -- 29.97 in1014.9 mb 0.09 in2.3 mm 0.00 in0.0 mm 0.13 in3.3 mm
07:55 PM 45.0°F7.2°C 43.7°F6.5°C 95% Calm Calm -- 29.97 in1014.9 mb 0.06 in1.5 mm 0.00 in0.0 mm 0.13 in3.3 mm
08:00 PM 45.1°F7.3°C 43.8°F6.6°C 95% Calm Calm -- 29.97 in1014.9 mb 0.06 in1.5 mm 0.00 in0.0 mm 0.13 in3.3 mm
08:05 PM 45.1°F7.3°C 43.8°F6.6°C 95% Calm Calm 2.0 mph3.2 kmh 29.97 in1014.9 mb 0.06 in1.5 mm 0.00 in0.0 mm 0.13 in3.3 mm
08:10 PM 45.0°F7.2°C 43.7°F6.5°C 95% Calm Calm -- 29.97 in1014.9 mb 0.06 in1.5 mm 0.00 in0.0 mm 0.13 in3.3 mm
08:15 PM 45.0°F7.2°C 43.7°F6.5°C 95% Calm Calm -- 29.97 in1014.9 mb 0.06 in1.5 mm 0.00 in0.0 mm 0.13 in3.3 mm
08:20 PM 45.0°F7.2°C 43.7°F6.5°C 95% Calm Calm 3.0 mph4.8 kmh 29.97 in1014.9 mb 0.06 in1.5 mm 0.00 in0.0 mm 0.13 in3.3 mm
08:25 PM 45.1°F7.3°C 43.8°F6.6°C 95% Calm Calm 2.0 mph3.2 kmh 29.97 in1014.9 mb 0.06 in1.5 mm 0.00 in0.0 mm 0.13 in3.3 mm
08:30 PM 45.1°F7.3°C 43.8°F6.6°C 95% Calm Calm 2.0 mph3.2 kmh 29.97 in1014.9 mb 0.06 in1.5 mm 0.00 in0.0 mm 0.13 in3.3 mm
08:35 PM 45.1°F7.3°C 43.8°F6.6°C 95% Calm Calm 2.0 mph3.2 kmh 29.97 in1014.9 mb 0.05 in1.3 mm 0.00 in0.0 mm 0.13 in3.3 mm
08:40 PM 45.0°F7.2°C 43.7°F6.5°C 95% Calm Calm 1.0 mph1.6 kmh 29.97 in1014.9 mb 0.03 in0.8 mm 0.00 in0.0 mm 0.13 in3.3 mm
08:45 PM 45.0°F7.2°C 43.7°F6.5°C 95% Calm Calm 1.0 mph1.6 kmh 29.97 in1014.9 mb 0.02 in0.5 mm 0.00 in0.0 mm 0.13 in3.3 mm
08:50 PM 45.0°F7.2°C 43.7°F6.5°C 95% Calm Calm -- 29.97 in1014.9 mb 0.02 in0.5 mm 0.00 in0.0 mm 0.13 in3.3 mm
08:55 PM 45.0°F7.2°C 43.7°F6.5°C 95% Calm Calm -- 29.97 in1014.9 mb 0.01 in0.3 mm 0.00 in0.0 mm 0.13 in3.3 mm
09:00 PM 45.0°F7.2°C 43.7°F6.5°C 95% Calm Calm -- 29.97 in1014.9 mb 0.00 in0.0 mm 0.00 in0.0 mm 0.13 in3.3 mm
09:05 PM 45.0°F7.2°C 43.7°F6.5°C 95% Calm Calm -- 29.97 in1014.9 mb 0.00 in0.0 mm 0.00 in0.0 mm 0.13 in3.3 mm
09:10 PM 45.1°F7.3°C 43.8°F6.6°C 95% 1.0 mph NNW1.6 kmh NNW 1.0 mph1.6 kmh 29.97 in1014.9 mb 0.00 in0.0 mm 0.00 in0.0 mm 0.13 in3.3 mm
09:15 PM 45.1°F7.3°C 43.8°F6.6°C 95% Calm Calm 1.0 mph1.6 kmh 29.97 in1014.9 mb 0.00 in0.0 mm 0.00 in0.0 mm 0.13 in3.3 mm
09:20 PM 45.1°F7.3°C 44.0°F6.7°C 96% Calm Calm -- 29.97 in1014.9 mb 0.00 in0.0 mm 0.00 in0.0 mm 0.13 in3.3 mm
09:25 PM 45.2°F7.3°C 44.1°F6.7°C 96% Calm Calm -- 29.97 in1014.9 mb 0.00 in0.0 mm 0.00 in0.0 mm 0.13 in3.3 mm
09:30 PM 45.3°F7.4°C 44.2°F6.8°C 96% Calm Calm -- 29.97 in1014.9 mb 0.00 in0.0 mm 0.00 in0.0 mm 0.13 in3.3 mm
09:35 PM 45.3°F7.4°C 44.2°F6.8°C 96% Calm Calm -- 29.97 in1014.9 mb 0.00 in0.0 mm 0.00 in0.0 mm 0.13 in3.3 mm
09:40 PM 45.3°F7.4°C 44.2°F6.8°C 96% Calm Calm -- 29.98 in1015.2 mb 0.00 in0.0 mm 0.00 in0.0 mm 0.13 in3.3 mm
09:45 PM 45.3°F7.4°C 44.2°F6.8°C 96% Calm Calm -- 29.98 in1015.2 mb 0.00 in0.0 mm 0.00 in0.0 mm 0.13 in3.3 mm
09:50 PM 45.3°F7.4°C 44.2°F6.8°C 96% Calm Calm -- 29.98 in1015.2 mb 0.00 in0.0 mm 0.00 in0.0 mm 0.13 in3.3 mm
09:55 PM 45.3°F7.4°C 44.2°F6.8°C 96% 2.0 mph ESE3.2 kmh ESE 3.0 mph4.8 kmh 29.98 in1015.2 mb 0.00 in0.0 mm 0.00 in0.0 mm 0.13 in3.3 mm
10:00 PM 45.4°F7.4°C 44.3°F6.8°C 96% 2.0 mph S3.2 kmh S 3.0 mph4.8 kmh 29.99 in1015.6 mb 0.00 in0.0 mm 0.00 in0.0 mm 0.13 in3.3 mm
10:05 PM 45.4°F7.4°C 44.3°F6.8°C 96% Calm Calm 2.0 mph3.2 kmh 29.99 in1015.6 mb 0.00 in0.0 mm 0.00 in0.0 mm 0.13 in3.3 mm
10:10 PM 45.5°F7.5°C 44.4°F6.9°C 96% Calm Calm 1.0 mph1.6 kmh 29.99 in1015.6 mb 0.00 in0.0 mm 0.00 in0.0 mm 0.13 in3.3 mm
10:15 PM 45.5°F7.5°C 44.4°F6.9°C 96% Calm Calm -- 29.99 in1015.6 mb 0.00 in0.0 mm 0.00 in0.0 mm 0.13 in3.3 mm
10:20 PM 45.4°F7.4°C 44.3°F6.8°C 96% Calm Calm 2.0 mph3.2 kmh 29.99 in1015.6 mb 0.00 in0.0 mm 0.00 in0.0 mm 0.13 in3.3 mm
10:25 PM 45.3°F7.4°C 44.2°F6.8°C 96% Calm Calm 2.0 mph3.2 kmh 29.99 in1015.6 mb 0.00 in0.0 mm 0.00 in0.0 mm 0.13 in3.3 mm
10:30 PM 45.3°F7.4°C 44.2°F6.8°C 96% Calm Calm 2.0 mph3.2 kmh 29.99 in1015.6 mb 0.00 in0.0 mm 0.00 in0.0 mm 0.13 in3.3 mm
10:35 PM 45.3°F7.4°C 44.2°F6.8°C 96% Calm Calm 4.0 mph6.4 kmh 29.99 in1015.6 mb 0.00 in0.0 mm 0.00 in0.0 mm 0.13 in3.3 mm
10:40 PM 45.3°F7.4°C 44.2°F6.8°C 96% Calm Calm 1.0 mph1.6 kmh 29.99 in1015.6 mb 0.01 in0.3 mm 0.12 in3.0 mm 0.14 in3.6 mm
10:45 PM 45.3°F7.4°C 44.2°F6.8°C 96% Calm Calm 1.0 mph1.6 kmh 29.99 in1015.6 mb 0.01 in0.3 mm 0.00 in0.0 mm 0.14 in3.6 mm
10:50 PM 45.2°F7.3°C 44.1°F6.7°C 96% Calm Calm 1.0 mph1.6 kmh 29.99 in1015.6 mb 0.01 in0.3 mm 0.00 in0.0 mm 0.14 in3.6 mm
10:55 PM 45.2°F7.3°C 44.1°F6.7°C 96% Calm Calm -- 29.99 in1015.6 mb 0.01 in0.3 mm 0.00 in0.0 mm 0.14 in3.6 mm
11:00 PM 45.1°F7.3°C 44.0°F6.7°C 96% Calm Calm 1.0 mph1.6 kmh 29.99 in1015.6 mb 0.01 in0.3 mm 0.00 in0.0 mm 0.14 in3.6 mm
11:05 PM 45.0°F7.2°C 43.9°F6.6°C 96% Calm Calm -- 29.99 in1015.6 mb 0.01 in0.3 mm 0.00 in0.0 mm 0.14 in3.6 mm
11:10 PM 45.0°F7.2°C 43.9°F6.6°C 96% Calm Calm -- 29.99 in1015.6 mb 0.01 in0.3 mm 0.00 in0.0 mm 0.14 in3.6 mm
11:15 PM 45.0°F7.2°C 43.9°F6.6°C 96% Calm Calm -- 29.99 in1015.6 mb 0.01 in0.3 mm 0.00 in0.0 mm 0.14 in3.6 mm
11:20 PM 44.9°F7.2°C 43.8°F6.6°C 96% Calm Calm -- 29.99 in1015.6 mb 0.01 in0.3 mm 0.00 in0.0 mm 0.14 in3.6 mm
11:25 PM 44.9°F7.2°C 43.8°F6.6°C 96% Calm Calm -- 29.99 in1015.6 mb 0.01 in0.3 mm 0.00 in0.0 mm 0.14 in3.6 mm
11:30 PM 45.0°F7.2°C 43.9°F6.6°C 96% Calm Calm 1.0 mph1.6 kmh 29.99 in1015.6 mb 0.01 in0.3 mm 0.00 in0.0 mm 0.14 in3.6 mm
11:35 PM 45.0°F7.2°C 43.9°F6.6°C 96% Calm Calm -- 29.99 in1015.6 mb 0.01 in0.3 mm 0.00 in0.0 mm 0.14 in3.6 mm
11:40 PM 44.9°F7.2°C 43.8°F6.6°C 96% Calm Calm -- 29.99 in1015.6 mb 0.01 in0.3 mm 0.00 in0.0 mm 0.14 in3.6 mm
11:45 PM 44.8°F7.1°C 43.7°F6.5°C 96% Calm Calm -- 29.99 in1015.6 mb 0.00 in0.0 mm 0.00 in0.0 mm 0.14 in3.6 mm
11:50 PM 44.7°F7.1°C 43.6°F6.4°C 96% Calm Calm -- 29.99 in1015.6 mb 0.00 in0.0 mm 0.00 in0.0 mm 0.14 in3.6 mm
11:55 PM 44.7°F7.1°C 43.6°F6.4°C 96% Calm Calm -- 29.99 in1015.6 mb 0.00 in0.0 mm 0.00 in0.0 mm 0.14 in3.6 mm